sensor_id;sensor_type;location;lat;lon;timestamp;P1;durP1;ratioP1;P2;durP2;ratioP2
13012;SDS011;22580;57.670;12.006;2023-01-24T00:00:02;1.30;;;1.30;;
13012;SDS011;22580;57.670;12.006;2023-01-24T00:02:30;1.67;;;1.50;;
13012;SDS011;22580;57.670;12.006;2023-01-24T00:04:57;1.70;;;1.60;;
13012;SDS011;22580;57.670;12.006;2023-01-24T00:07:26;2.43;;;2.23;;
13012;SDS011;22580;57.670;12.006;2023-01-24T00:09:53;1.90;;;1.70;;
13012;SDS011;22580;57.670;12.006;2023-01-24T00:12:20;1.87;;;1.77;;
13012;SDS011;22580;57.670;12.006;2023-01-24T00:14:46;1.30;;;1.20;;
13012;SDS011;22580;57.670;12.006;2023-01-24T00:17:13;1.20;;;1.10;;
13012;SDS011;22580;57.670;12.006;2023-01-24T00:19:40;1.20;;;1.20;;
13012;SDS011;22580;57.670;12.006;2023-01-24T00:22:07;1.50;;;1.40;;
13012;SDS011;22580;57.670;12.006;2023-01-24T00:24:35;2.40;;;2.00;;
13012;SDS011;22580;57.670;12.006;2023-01-24T00:27:02;1.90;;;1.70;;
13012;SDS011;22580;57.670;12.006;2023-01-24T00:29:29;1.60;;;1.50;;
13012;SDS011;22580;57.670;12.006;2023-01-24T00:31:56;1.30;;;1.20;;
13012;SDS011;22580;57.670;12.006;2023-01-24T00:34:23;1.47;;;1.37;;
13012;SDS011;22580;57.670;12.006;2023-01-24T00:36:50;1.40;;;1.30;;
13012;SDS011;22580;57.670;12.006;2023-01-24T00:39:17;1.13;;;1.10;;
13012;SDS011;22580;57.670;12.006;2023-01-24T00:41:45;2.27;;;1.90;;
13012;SDS011;22580;57.670;12.006;2023-01-24T00:44:12;2.30;;;1.90;;
13012;SDS011;22580;57.670;12.006;2023-01-24T00:46:39;2.23;;;2.03;;
13012;SDS011;22580;57.670;12.006;2023-01-24T00:49:06;2.07;;;1.80;;
13012;SDS011;22580;57.670;12.006;2023-01-24T00:51:34;1.63;;;1.53;;
13012;SDS011;22580;57.670;12.006;2023-01-24T00:54:00;1.60;;;1.50;;
13012;SDS011;22580;57.670;12.006;2023-01-24T00:56:27;2.00;;;1.90;;
13012;SDS011;22580;57.670;12.006;2023-01-24T00:58:56;1.70;;;1.60;;
13012;SDS011;22580;57.670;12.006;2023-01-24T01:01:23;1.70;;;1.60;;
13012;SDS011;22580;57.670;12.006;2023-01-24T01:03:49;1.90;;;1.80;;
13012;SDS011;22580;57.670;12.006;2023-01-24T01:06:20;2.07;;;1.90;;
13012;SDS011;22580;57.670;12.006;2023-01-24T01:08:48;1.70;;;1.60;;
13012;SDS011;22580;57.670;12.006;2023-01-24T01:11:15;1.93;;;1.83;;
13012;SDS011;22580;57.670;12.006;2023-01-24T01:13:41;1.80;;;1.70;;
13012;SDS011;22580;57.670;12.006;2023-01-24T01:16:12;2.20;;;2.10;;
13012;SDS011;22580;57.670;12.006;2023-01-24T01:18:41;1.70;;;1.60;;
13012;SDS011;22580;57.670;12.006;2023-01-24T01:21:09;2.53;;;2.33;;
13012;SDS011;22580;57.670;12.006;2023-01-24T01:23:38;2.50;;;2.30;;
13012;SDS011;22580;57.670;12.006;2023-01-24T01:26:06;2.30;;;2.10;;
13012;SDS011;22580;57.670;12.006;2023-01-24T01:28:35;2.47;;;2.27;;
13012;SDS011;22580;57.670;12.006;2023-01-24T01:31:02;2.63;;;2.43;;
13012;SDS011;22580;57.670;12.006;2023-01-24T01:33:30;3.43;;;2.93;;
13012;SDS011;22580;57.670;12.006;2023-01-24T01:35:57;2.40;;;2.20;;
13012;SDS011;22580;57.670;12.006;2023-01-24T01:38:25;2.17;;;2.07;;
13012;SDS011;22580;57.670;12.006;2023-01-24T01:40:53;4.07;;;3.17;;
13012;SDS011;22580;57.670;12.006;2023-01-24T01:43:21;2.83;;;2.63;;
13012;SDS011;22580;57.670;12.006;2023-01-24T01:45:49;2.70;;;2.50;;
13012;SDS011;22580;57.670;12.006;2023-01-24T01:48:19;2.80;;;2.60;;
13012;SDS011;22580;57.670;12.006;2023-01-24T01:50:53;2.90;;;2.43;;
13012;SDS011;22580;57.670;12.006;2023-01-24T01:53:26;2.50;;;2.30;;
13012;SDS011;22580;57.670;12.006;2023-01-24T01:55:57;2.83;;;2.53;;
13012;SDS011;22580;57.670;12.006;2023-01-24T01:58:29;3.40;;;3.10;;
13012;SDS011;22580;57.670;12.006;2023-01-24T02:00:58;2.43;;;2.23;;
13012;SDS011;22580;57.670;12.006;2023-01-24T02:03:27;3.43;;;2.80;;
13012;SDS011;22580;57.670;12.006;2023-01-24T02:06:08;2.80;;;2.60;;
13012;SDS011;22580;57.670;12.006;2023-01-24T02:08:43;2.90;;;2.60;;
13012;SDS011;22580;57.670;12.006;2023-01-24T02:11:11;3.17;;;2.87;;
13012;SDS011;22580;57.670;12.006;2023-01-24T02:13:57;3.10;;;2.90;;
13012;SDS011;22580;57.670;12.006;2023-01-24T02:16:39;3.00;;;2.80;;
13012;SDS011;22580;57.670;12.006;2023-01-24T02:19:06;2.50;;;2.30;;
13012;SDS011;22580;57.670;12.006;2023-01-24T02:21:44;3.10;;;2.90;;
13012;SDS011;22580;57.670;12.006;2023-01-24T02:24:15;2.73;;;2.53;;
13012;SDS011;22580;57.670;12.006;2023-01-24T02:26:51;2.73;;;2.53;;
13012;SDS011;22580;57.670;12.006;2023-01-24T02:29:18;2.70;;;2.50;;
13012;SDS011;22580;57.670;12.006;2023-01-24T02:31:53;2.87;;;2.60;;
13012;SDS011;22580;57.670;12.006;2023-01-24T02:34:22;2.50;;;2.30;;
13012;SDS011;22580;57.670;12.006;2023-01-24T02:36:50;2.30;;;2.10;;
13012;SDS011;22580;57.670;12.006;2023-01-24T02:39:21;2.30;;;2.10;;
13012;SDS011;22580;57.670;12.006;2023-01-24T02:41:54;2.40;;;2.20;;
13012;SDS011;22580;57.670;12.006;2023-01-24T02:44:25;3.10;;;2.63;;
13012;SDS011;22580;57.670;12.006;2023-01-24T02:46:56;3.50;;;2.70;;
13012;SDS011;22580;57.670;12.006;2023-01-24T02:49:22;2.80;;;2.50;;
13012;SDS011;22580;57.670;12.006;2023-01-24T02:51:49;2.40;;;2.20;;
13012;SDS011;22580;57.670;12.006;2023-01-24T02:54:34;2.27;;;2.07;;
13012;SDS011;22580;57.670;12.006;2023-01-24T02:57:02;2.57;;;2.37;;
13012;SDS011;22580;57.670;12.006;2023-01-24T02:59:46;2.57;;;2.37;;
13012;SDS011;22580;57.670;12.006;2023-01-24T03:02:13;2.13;;;1.97;;
13012;SDS011;22580;57.670;12.006;2023-01-24T03:04:40;2.47;;;2.30;;
13012;SDS011;22580;57.670;12.006;2023-01-24T03:07:07;2.20;;;2.10;;
13012;SDS011;22580;57.670;12.006;2023-01-24T03:09:34;2.50;;;2.30;;
13012;SDS011;22580;57.670;12.006;2023-01-24T03:12:05;1.97;;;1.87;;
13012;SDS011;22580;57.670;12.006;2023-01-24T03:14:51;2.27;;;2.00;;
13012;SDS011;22580;57.670;12.006;2023-01-24T03:17:35;1.90;;;1.80;;
13012;SDS011;22580;57.670;12.006;2023-01-24T03:20:19;2.43;;;1.93;;
13012;SDS011;22580;57.670;12.006;2023-01-24T03:23:04;2.33;;;2.20;;
13012;SDS011;22580;57.670;12.006;2023-01-24T03:25:52;2.13;;;2.03;;
13012;SDS011;22580;57.670;12.006;2023-01-24T03:28:38;2.77;;;2.57;;
13012;SDS011;22580;57.670;12.006;2023-01-24T03:31:23;3.13;;;2.60;;
13012;SDS011;22580;57.670;12.006;2023-01-24T03:34:07;2.80;;;2.53;;
13012;SDS011;22580;57.670;12.006;2023-01-24T03:36:52;2.20;;;2.00;;
13012;SDS011;22580;57.670;12.006;2023-01-24T03:39:19;2.27;;;2.03;;
13012;SDS011;22580;57.670;12.006;2023-01-24T03:42:03;2.00;;;1.90;;
13012;SDS011;22580;57.670;12.006;2023-01-24T03:44:32;1.97;;;1.87;;
13012;SDS011;22580;57.670;12.006;2023-01-24T03:46:59;1.77;;;1.67;;
13012;SDS011;22580;57.670;12.006;2023-01-24T03:49:25;2.27;;;2.07;;
13012;SDS011;22580;57.670;12.006;2023-01-24T03:52:10;2.93;;;1.90;;
13012;SDS011;22580;57.670;12.006;2023-01-24T03:54:55;2.33;;;2.13;;
13012;SDS011;22580;57.670;12.006;2023-01-24T03:57:22;2.27;;;2.07;;
13012;SDS011;22580;57.670;12.006;2023-01-24T03:59:51;2.27;;;2.07;;
13012;SDS011;22580;57.670;12.006;2023-01-24T04:02:19;2.13;;;1.93;;
13012;SDS011;22580;57.670;12.006;2023-01-24T04:04:46;1.70;;;1.60;;
13012;SDS011;22580;57.670;12.006;2023-01-24T04:07:31;1.97;;;1.77;;
13012;SDS011;22580;57.670;12.006;2023-01-24T04:09:58;2.13;;;1.93;;
13012;SDS011;22580;57.670;12.006;2023-01-24T04:12:25;1.93;;;1.80;;
13012;SDS011;22580;57.670;12.006;2023-01-24T04:14:54;2.63;;;2.43;;
13012;SDS011;22580;57.670;12.006;2023-01-24T04:17:21;2.20;;;1.57;;
13012;SDS011;22580;57.670;12.006;2023-01-24T04:19:48;1.70;;;1.60;;
13012;SDS011;22580;57.670;12.006;2023-01-24T04:22:15;1.70;;;1.60;;
13012;SDS011;22580;57.670;12.006;2023-01-24T04:24:42;2.50;;;1.90;;
13012;SDS011;22580;57.670;12.006;2023-01-24T04:27:10;2.20;;;1.70;;
13012;SDS011;22580;57.670;12.006;2023-01-24T04:29:37;2.27;;;2.07;;
13012;SDS011;22580;57.670;12.006;2023-01-24T04:32:06;2.00;;;1.90;;
13012;SDS011;22580;57.670;12.006;2023-01-24T04:34:33;1.77;;;1.67;;
13012;SDS011;22580;57.670;12.006;2023-01-24T04:37:00;2.10;;;1.90;;
13012;SDS011;22580;57.670;12.006;2023-01-24T04:39:27;2.77;;;2.03;;
13012;SDS011;22580;57.670;12.006;2023-01-24T04:41:54;2.27;;;1.80;;
13012;SDS011;22580;57.670;12.006;2023-01-24T04:44:21;1.83;;;1.73;;
13012;SDS011;22580;57.670;12.006;2023-01-24T04:46:48;2.07;;;1.97;;
13012;SDS011;22580;57.670;12.006;2023-01-24T04:49:16;3.03;;;2.73;;
13012;SDS011;22580;57.670;12.006;2023-01-24T04:51:43;2.47;;;2.27;;
13012;SDS011;22580;57.670;12.006;2023-01-24T04:54:13;2.40;;;2.07;;
13012;SDS011;22580;57.670;12.006;2023-01-24T04:56:40;3.37;;;2.30;;
13012;SDS011;22580;57.670;12.006;2023-01-24T04:59:07;1.93;;;1.83;;
13012;SDS011;22580;57.670;12.006;2023-01-24T05:01:34;2.37;;;2.17;;
13012;SDS011;22580;57.670;12.006;2023-01-24T05:04:02;2.57;;;2.37;;
13012;SDS011;22580;57.670;12.006;2023-01-24T05:06:31;2.40;;;2.20;;
13012;SDS011;22580;57.670;12.006;2023-01-24T05:08:59;2.00;;;1.90;;
13012;SDS011;22580;57.670;12.006;2023-01-24T05:11:26;2.07;;;1.83;;
13012;SDS011;22580;57.670;12.006;2023-01-24T05:13:53;2.73;;;1.83;;
13012;SDS011;22580;57.670;12.006;2023-01-24T05:16:20;2.17;;;2.00;;
13012;SDS011;22580;57.670;12.006;2023-01-24T05:18:47;2.77;;;1.90;;
13012;SDS011;22580;57.670;12.006;2023-01-24T05:21:14;2.60;;;1.90;;
13012;SDS011;22580;57.670;12.006;2023-01-24T05:23:47;2.33;;;2.10;;
13012;SDS011;22580;57.670;12.006;2023-01-24T05:26:15;1.53;;;1.43;;
13012;SDS011;22580;57.670;12.006;2023-01-24T05:28:42;1.73;;;1.63;;
13012;SDS011;22580;57.670;12.006;2023-01-24T05:31:09;1.83;;;1.63;;
13012;SDS011;22580;57.670;12.006;2023-01-24T05:33:36;2.43;;;2.10;;
13012;SDS011;22580;57.670;12.006;2023-01-24T05:36:04;2.30;;;2.10;;
13012;SDS011;22580;57.670;12.006;2023-01-24T05:38:32;3.23;;;2.17;;
13012;SDS011;22580;57.670;12.006;2023-01-24T05:41:02;2.13;;;1.93;;
13012;SDS011;22580;57.670;12.006;2023-01-24T05:43:30;2.53;;;1.80;;
13012;SDS011;22580;57.670;12.006;2023-01-24T05:45:58;1.93;;;1.80;;
13012;SDS011;22580;57.670;12.006;2023-01-24T05:48:25;2.23;;;1.80;;
13012;SDS011;22580;57.670;12.006;2023-01-24T05:50:56;1.90;;;1.80;;
13012;SDS011;22580;57.670;12.006;2023-01-24T05:53:24;2.37;;;1.90;;
13012;SDS011;22580;57.670;12.006;2023-01-24T05:55:55;2.27;;;1.73;;
13012;SDS011;22580;57.670;12.006;2023-01-24T05:58:24;1.93;;;1.67;;
13012;SDS011;22580;57.670;12.006;2023-01-24T06:00:51;1.57;;;1.47;;
13012;SDS011;22580;57.670;12.006;2023-01-24T06:03:18;2.30;;;2.10;;
13012;SDS011;22580;57.670;12.006;2023-01-24T06:05:46;2.17;;;1.90;;
13012;SDS011;22580;57.670;12.006;2023-01-24T06:08:14;3.90;;;2.57;;
13012;SDS011;22580;57.670;12.006;2023-01-24T06:10:41;2.40;;;2.20;;
13012;SDS011;22580;57.670;12.006;2023-01-24T06:13:09;2.30;;;2.10;;
13012;SDS011;22580;57.670;12.006;2023-01-24T06:15:38;2.20;;;2.00;;
13012;SDS011;22580;57.670;12.006;2023-01-24T06:18:05;1.97;;;1.77;;
13012;SDS011;22580;57.670;12.006;2023-01-24T06:20:33;3.47;;;2.17;;
13012;SDS011;22580;57.670;12.006;2023-01-24T06:23:03;2.43;;;2.10;;
13012;SDS011;22580;57.670;12.006;2023-01-24T06:25:32;1.87;;;1.73;;
13012;SDS011;22580;57.670;12.006;2023-01-24T06:27:59;1.73;;;1.63;;
13012;SDS011;22580;57.670;12.006;2023-01-24T06:30:26;1.90;;;1.67;;
13012;SDS011;22580;57.670;12.006;2023-01-24T06:33:01;1.83;;;1.73;;
13012;SDS011;22580;57.670;12.006;2023-01-24T06:35:42;2.60;;;2.30;;
13012;SDS011;22580;57.670;12.006;2023-01-24T06:38:16;2.20;;;2.00;;
13012;SDS011;22580;57.670;12.006;2023-01-24T06:40:45;2.40;;;2.20;;
13012;SDS011;22580;57.670;12.006;2023-01-24T06:43:13;2.23;;;2.03;;
13012;SDS011;22580;57.670;12.006;2023-01-24T06:45:40;2.83;;;2.43;;
13012;SDS011;22580;57.670;12.006;2023-01-24T06:48:09;2.80;;;2.30;;
13012;SDS011;22580;57.670;12.006;2023-01-24T06:50:36;2.23;;;2.10;;
13012;SDS011;22580;57.670;12.006;2023-01-24T06:53:02;2.40;;;2.20;;
13012;SDS011;22580;57.670;12.006;2023-01-24T06:55:30;2.40;;;2.20;;
13012;SDS011;22580;57.670;12.006;2023-01-24T06:57:57;2.23;;;1.87;;
13012;SDS011;22580;57.670;12.006;2023-01-24T07:00:25;2.10;;;1.90;;
13012;SDS011;22580;57.670;12.006;2023-01-24T07:02:57;4.57;;;2.70;;
13012;SDS011;22580;57.670;12.006;2023-01-24T07:05:26;2.37;;;2.17;;
13012;SDS011;22580;57.670;12.006;2023-01-24T07:07:54;2.60;;;2.40;;
13012;SDS011;22580;57.670;12.006;2023-01-24T07:10:21;3.67;;;2.27;;
13012;SDS011;22580;57.670;12.006;2023-01-24T07:12:48;2.40;;;2.20;;
13012;SDS011;22580;57.670;12.006;2023-01-24T07:15:15;2.47;;;2.20;;
13012;SDS011;22580;57.670;12.006;2023-01-24T07:17:42;2.83;;;2.63;;
13012;SDS011;22580;57.670;12.006;2023-01-24T07:20:11;2.40;;;2.20;;
13012;SDS011;22580;57.670;12.006;2023-01-24T07:22:41;3.20;;;2.90;;
13012;SDS011;22580;57.670;12.006;2023-01-24T07:25:11;3.30;;;3.00;;
13012;SDS011;22580;57.670;12.006;2023-01-24T07:27:40;4.97;;;3.17;;
13012;SDS011;22580;57.670;12.006;2023-01-24T07:30:08;3.37;;;3.07;;
13012;SDS011;22580;57.670;12.006;2023-01-24T07:32:36;3.10;;;2.80;;
13012;SDS011;22580;57.670;12.006;2023-01-24T07:35:03;3.30;;;3.00;;
13012;SDS011;22580;57.670;12.006;2023-01-24T07:37:31;3.00;;;2.63;;
13012;SDS011;22580;57.670;12.006;2023-01-24T07:40:00;3.37;;;3.07;;
13012;SDS011;22580;57.670;12.006;2023-01-24T07:42:27;3.63;;;2.90;;
13012;SDS011;22580;57.670;12.006;2023-01-24T07:44:54;3.30;;;3.00;;
13012;SDS011;22580;57.670;12.006;2023-01-24T07:47:23;3.60;;;3.30;;
13012;SDS011;22580;57.670;12.006;2023-01-24T07:49:51;3.53;;;2.60;;
13012;SDS011;22580;57.670;12.006;2023-01-24T07:52:18;2.33;;;2.13;;
13012;SDS011;22580;57.670;12.006;2023-01-24T07:54:45;3.10;;;2.73;;
13012;SDS011;22580;57.670;12.006;2023-01-24T07:57:14;3.63;;;2.47;;
13012;SDS011;22580;57.670;12.006;2023-01-24T07:59:41;3.30;;;3.00;;
13012;SDS011;22580;57.670;12.006;2023-01-24T08:02:09;3.43;;;3.13;;
13012;SDS011;22580;57.670;12.006;2023-01-24T08:04:36;3.73;;;3.00;;
13012;SDS011;22580;57.670;12.006;2023-01-24T08:07:03;2.80;;;2.60;;
13012;SDS011;22580;57.670;12.006;2023-01-24T08:09:46;2.90;;;2.60;;
13012;SDS011;22580;57.670;12.006;2023-01-24T08:12:15;3.30;;;3.00;;
13012;SDS011;22580;57.670;12.006;2023-01-24T08:14:42;3.50;;;3.20;;
13012;SDS011;22580;57.670;12.006;2023-01-24T08:17:09;4.47;;;3.57;;
13012;SDS011;22580;57.670;12.006;2023-01-24T08:19:36;4.20;;;2.93;;
13012;SDS011;22580;57.670;12.006;2023-01-24T08:22:04;4.00;;;3.43;;
13012;SDS011;22580;57.670;12.006;2023-01-24T08:24:32;4.30;;;3.17;;
13012;SDS011;22580;57.670;12.006;2023-01-24T08:26:59;4.40;;;3.60;;
13012;SDS011;22580;57.670;12.006;2023-01-24T08:29:28;3.50;;;3.20;;
13012;SDS011;22580;57.670;12.006;2023-01-24T08:31:55;4.60;;;3.73;;
13012;SDS011;22580;57.670;12.006;2023-01-24T08:34:23;5.20;;;3.40;;
13012;SDS011;22580;57.670;12.006;2023-01-24T08:36:50;3.87;;;3.47;;
13012;SDS011;22580;57.670;12.006;2023-01-24T08:39:17;3.50;;;3.20;;
13012;SDS011;22580;57.670;12.006;2023-01-24T08:41:45;3.93;;;3.50;;
13012;SDS011;22580;57.670;12.006;2023-01-24T08:44:12;6.97;;;4.60;;
13012;SDS011;22580;57.670;12.006;2023-01-24T08:46:42;4.47;;;3.97;;
13012;SDS011;22580;57.670;12.006;2023-01-24T08:49:09;5.27;;;3.70;;
13012;SDS011;22580;57.670;12.006;2023-01-24T08:51:36;4.63;;;4.13;;
13012;SDS011;22580;57.670;12.006;2023-01-24T08:54:04;4.63;;;3.60;;
13012;SDS011;22580;57.670;12.006;2023-01-24T08:56:32;4.70;;;3.50;;
13012;SDS011;22580;57.670;12.006;2023-01-24T08:59:00;5.23;;;3.70;;
13012;SDS011;22580;57.670;12.006;2023-01-24T09:01:27;5.17;;;3.67;;
13012;SDS011;22580;57.670;12.006;2023-01-24T09:03:55;4.43;;;3.70;;
13012;SDS011;22580;57.670;12.006;2023-01-24T09:06:24;3.50;;;3.20;;
13012;SDS011;22580;57.670;12.006;2023-01-24T09:08:52;3.83;;;3.10;;
13012;SDS011;22580;57.670;12.006;2023-01-24T09:11:20;4.97;;;3.33;;
13012;SDS011;22580;57.670;12.006;2023-01-24T09:13:47;4.20;;;3.70;;
13012;SDS011;22580;57.670;12.006;2023-01-24T09:16:13;4.77;;;3.73;;
13012;SDS011;22580;57.670;12.006;2023-01-24T09:18:40;5.00;;;3.83;;
13012;SDS011;22580;57.670;12.006;2023-01-24T09:21:09;4.18;;;3.78;;
13012;SDS011;22580;57.670;12.006;2023-01-24T09:23:36;6.57;;;4.67;;
13012;SDS011;22580;57.670;12.006;2023-01-24T09:26:03;5.67;;;4.47;;
13012;SDS011;22580;57.670;12.006;2023-01-24T09:28:30;5.13;;;4.40;;
13012;SDS011;22580;57.670;12.006;2023-01-24T09:30:58;6.00;;;4.50;;
13012;SDS011;22580;57.670;12.006;2023-01-24T09:33:27;6.07;;;4.70;;
13012;SDS011;22580;57.670;12.006;2023-01-24T09:35:55;4.30;;;3.80;;
13012;SDS011;22580;57.670;12.006;2023-01-24T09:38:25;5.10;;;4.03;;
13012;SDS011;22580;57.670;12.006;2023-01-24T09:40:54;4.27;;;3.37;;
13012;SDS011;22580;57.670;12.006;2023-01-24T09:43:30;6.43;;;4.40;;
13012;SDS011;22580;57.670;12.006;2023-01-24T09:46:15;4.77;;;4.30;;
13012;SDS011;22580;57.670;12.006;2023-01-24T09:48:47;4.60;;;3.97;;
13012;SDS011;22580;57.670;12.006;2023-01-24T09:51:17;4.33;;;3.83;;
13012;SDS011;22580;57.670;12.006;2023-01-24T09:53:51;5.07;;;3.90;;
13012;SDS011;22580;57.670;12.006;2023-01-24T09:56:21;4.67;;;4.03;;
13012;SDS011;22580;57.670;12.006;2023-01-24T09:58:58;5.03;;;4.07;;
13012;SDS011;22580;57.670;12.006;2023-01-24T10:01:36;5.37;;;3.90;;
13012;SDS011;22580;57.670;12.006;2023-01-24T10:04:17;6.53;;;4.60;;
13012;SDS011;22580;57.670;12.006;2023-01-24T10:07:00;5.30;;;4.00;;
13012;SDS011;22580;57.670;12.006;2023-01-24T10:09:39;5.00;;;4.23;;
13012;SDS011;22580;57.670;12.006;2023-01-24T10:12:19;5.40;;;3.97;;
13012;SDS011;22580;57.670;12.006;2023-01-24T10:15:01;5.63;;;3.93;;
13012;SDS011;22580;57.670;12.006;2023-01-24T10:17:51;3.87;;;3.53;;
13012;SDS011;22580;57.670;12.006;2023-01-24T10:20:31;4.90;;;3.33;;
13012;SDS011;22580;57.670;12.006;2023-01-24T10:23:12;5.07;;;3.97;;
13012;SDS011;22580;57.670;12.006;2023-01-24T10:25:52;5.37;;;4.37;;
13012;SDS011;22580;57.670;12.006;2023-01-24T10:28:23;6.83;;;5.03;;
13012;SDS011;22580;57.670;12.006;2023-01-24T10:30:56;6.10;;;5.00;;
13012;SDS011;22580;57.670;12.006;2023-01-24T10:33:29;5.23;;;4.10;;
13012;SDS011;22580;57.670;12.006;2023-01-24T10:36:00;5.97;;;4.70;;
13012;SDS011;22580;57.670;12.006;2023-01-24T10:38:31;6.10;;;5.07;;
13012;SDS011;22580;57.670;12.006;2023-01-24T10:41:10;5.00;;;3.93;;
13012;SDS011;22580;57.670;12.006;2023-01-24T10:43:44;5.60;;;4.00;;
13012;SDS011;22580;57.670;12.006;2023-01-24T10:46:19;5.80;;;4.57;;
13012;SDS011;22580;57.670;12.006;2023-01-24T10:49:00;6.17;;;4.80;;
13012;SDS011;22580;57.670;12.006;2023-01-24T10:51:31;5.53;;;4.37;;
13012;SDS011;22580;57.670;12.006;2023-01-24T10:54:00;5.33;;;4.43;;
13012;SDS011;22580;57.670;12.006;2023-01-24T10:56:29;6.63;;;4.53;;
13012;SDS011;22580;57.670;12.006;2023-01-24T10:59:04;5.03;;;4.40;;
13012;SDS011;22580;57.670;12.006;2023-01-24T11:01:38;6.60;;;4.63;;
13012;SDS011;22580;57.670;12.006;2023-01-24T11:04:12;4.93;;;4.43;;
13012;SDS011;22580;57.670;12.006;2023-01-24T11:06:42;4.93;;;4.20;;
13012;SDS011;22580;57.670;12.006;2023-01-24T11:09:12;4.80;;;4.20;;
13012;SDS011;22580;57.670;12.006;2023-01-24T11:11:43;4.57;;;3.70;;
13012;SDS011;22580;57.670;12.006;2023-01-24T11:14:14;4.43;;;4.03;;
13012;SDS011;22580;57.670;12.006;2023-01-24T11:16:44;4.50;;;3.83;;
13012;SDS011;22580;57.670;12.006;2023-01-24T11:19:21;3.73;;;3.10;;
13012;SDS011;22580;57.670;12.006;2023-01-24T11:21:52;4.20;;;3.80;;
13012;SDS011;22580;57.670;12.006;2023-01-24T11:24:20;3.43;;;3.13;;
13012;SDS011;22580;57.670;12.006;2023-01-24T11:26:54;4.23;;;3.43;;
13012;SDS011;22580;57.670;12.006;2023-01-24T11:29:24;4.37;;;3.67;;
13012;SDS011;22580;57.670;12.006;2023-01-24T11:31:52;4.60;;;3.73;;
13012;SDS011;22580;57.670;12.006;2023-01-24T11:34:24;4.70;;;3.70;;
13012;SDS011;22580;57.670;12.006;2023-01-24T11:37:15;3.77;;;3.47;;
13012;SDS011;22580;57.670;12.006;2023-01-24T11:39:56;4.37;;;3.50;;
13012;SDS011;22580;57.670;12.006;2023-01-24T11:42:31;4.40;;;3.90;;
13012;SDS011;22580;57.670;12.006;2023-01-24T11:45:19;5.13;;;3.70;;
13012;SDS011;22580;57.670;12.006;2023-01-24T11:48:03;5.17;;;4.00;;
13012;SDS011;22580;57.670;12.006;2023-01-24T11:50:36;4.20;;;3.60;;
13012;SDS011;22580;57.670;12.006;2023-01-24T11:56:10;6.67;;;4.33;;
13012;SDS011;22580;57.670;12.006;2023-01-24T12:01:53;4.77;;;3.87;;
13012;SDS011;22580;57.670;12.006;2023-01-24T12:04:33;6.37;;;5.13;;
13012;SDS011;22580;57.670;12.006;2023-01-24T12:07:25;7.63;;;4.80;;
13012;SDS011;22580;57.670;12.006;2023-01-24T12:10:00;5.70;;;4.60;;
13012;SDS011;22580;57.670;12.006;2023-01-24T12:12:34;4.13;;;3.70;;
13012;SDS011;22580;57.670;12.006;2023-01-24T12:15:13;5.23;;;3.90;;
13012;SDS011;22580;57.670;12.006;2023-01-24T12:17:52;4.23;;;3.83;;
13012;SDS011;22580;57.670;12.006;2023-01-24T12:20:27;6.87;;;4.37;;
13012;SDS011;22580;57.670;12.006;2023-01-24T12:23:10;5.40;;;4.50;;
13012;SDS011;22580;57.670;12.006;2023-01-24T12:25:44;5.87;;;4.43;;
13012;SDS011;22580;57.670;12.006;2023-01-24T12:28:14;4.80;;;4.07;;
13012;SDS011;22580;57.670;12.006;2023-01-24T12:30:53;6.63;;;4.57;;
13012;SDS011;22580;57.670;12.006;2023-01-24T12:33:25;6.07;;;4.57;;
13012;SDS011;22580;57.670;12.006;2023-01-24T12:35:58;6.27;;;5.30;;
13012;SDS011;22580;57.670;12.006;2023-01-24T12:38:32;4.80;;;4.20;;
13012;SDS011;22580;57.670;12.006;2023-01-24T12:41:05;5.03;;;4.10;;
13012;SDS011;22580;57.670;12.006;2023-01-24T12:43:42;5.27;;;3.97;;
13012;SDS011;22580;57.670;12.006;2023-01-24T12:46:22;5.40;;;4.73;;
13012;SDS011;22580;57.670;12.006;2023-01-24T12:48:58;4.90;;;4.40;;
13012;SDS011;22580;57.670;12.006;2023-01-24T12:51:36;6.13;;;4.47;;
13012;SDS011;22580;57.670;12.006;2023-01-24T12:54:10;6.70;;;4.80;;
13012;SDS011;22580;57.670;12.006;2023-01-24T12:56:44;5.80;;;5.20;;
13012;SDS011;22580;57.670;12.006;2023-01-24T12:59:17;5.97;;;4.80;;
13012;SDS011;22580;57.670;12.006;2023-01-24T13:04:53;8.53;;;5.43;;
13012;SDS011;22580;57.670;12.006;2023-01-24T13:07:35;6.73;;;5.17;;
13012;SDS011;22580;57.670;12.006;2023-01-24T13:10:13;5.53;;;4.47;;
13012;SDS011;22580;57.670;12.006;2023-01-24T13:12:45;4.90;;;4.33;;
13012;SDS011;22580;57.670;12.006;2023-01-24T13:15:15;5.27;;;4.13;;
13012;SDS011;22580;57.670;12.006;2023-01-24T13:20:47;4.57;;;3.50;;
13012;SDS011;22580;57.670;12.006;2023-01-24T13:23:29;3.97;;;3.63;;
13012;SDS011;22580;57.670;12.006;2023-01-24T13:26:12;4.27;;;3.87;;
13012;SDS011;22580;57.670;12.006;2023-01-24T13:28:56;6.40;;;4.73;;
13012;SDS011;22580;57.670;12.006;2023-01-24T13:31:34;4.77;;;4.30;;
13012;SDS011;22580;57.670;12.006;2023-01-24T13:34:12;4.77;;;4.37;;
13012;SDS011;22580;57.670;12.006;2023-01-24T13:36:45;5.53;;;3.97;;
13012;SDS011;22580;57.670;12.006;2023-01-24T13:39:26;4.60;;;3.90;;
13012;SDS011;22580;57.670;12.006;2023-01-24T13:42:01;4.17;;;3.63;;
13012;SDS011;22580;57.670;12.006;2023-01-24T13:44:30;4.43;;;3.80;;
13012;SDS011;22580;57.670;12.006;2023-01-24T13:47:02;5.67;;;4.27;;
13012;SDS011;22580;57.670;12.006;2023-01-24T13:50:01;5.70;;;3.97;;
13012;SDS011;22580;57.670;12.006;2023-01-24T13:52:38;6.43;;;4.53;;
13012;SDS011;22580;57.670;12.006;2023-01-24T13:58:27;6.23;;;4.83;;
13012;SDS011;22580;57.670;12.006;2023-01-24T14:00:55;6.97;;;5.77;;
13012;SDS011;22580;57.670;12.006;2023-01-24T14:03:27;5.77;;;4.47;;
13012;SDS011;22580;57.670;12.006;2023-01-24T14:06:10;5.27;;;4.57;;
13012;SDS011;22580;57.670;12.006;2023-01-24T14:08:40;4.97;;;4.07;;
13012;SDS011;22580;57.670;12.006;2023-01-24T14:11:32;4.50;;;4.10;;
13012;SDS011;22580;57.670;12.006;2023-01-24T14:16:55;3.23;;;2.90;;
13012;SDS011;22580;57.670;12.006;2023-01-24T14:19:29;2.93;;;2.63;;
13012;SDS011;22580;57.670;12.006;2023-01-24T14:22:04;2.60;;;2.40;;
13012;SDS011;22580;57.670;12.006;2023-01-24T14:24:48;2.70;;;2.50;;
13012;SDS011;22580;57.670;12.006;2023-01-24T14:27:20;2.70;;;2.50;;
13012;SDS011;22580;57.670;12.006;2023-01-24T14:29:50;2.83;;;2.63;;
13012;SDS011;22580;57.670;12.006;2023-01-24T14:32:23;3.60;;;3.10;;
13012;SDS011;22580;57.670;12.006;2023-01-24T14:34:56;3.33;;;3.03;;
13012;SDS011;22580;57.670;12.006;2023-01-24T14:37:29;3.57;;;3.27;;
13012;SDS011;22580;57.670;12.006;2023-01-24T14:42:47;3.77;;;3.40;;
13012;SDS011;22580;57.670;12.006;2023-01-24T14:45:15;5.03;;;3.80;;
13012;SDS011;22580;57.670;12.006;2023-01-24T14:47:47;4.00;;;3.60;;
13012;SDS011;22580;57.670;12.006;2023-01-24T14:50:23;4.07;;;3.67;;
13012;SDS011;22580;57.670;12.006;2023-01-24T14:52:52;5.13;;;3.80;;
13012;SDS011;22580;57.670;12.006;2023-01-24T14:58:14;3.60;;;3.30;;
13012;SDS011;22580;57.670;12.006;2023-01-24T15:00:43;3.10;;;2.80;;
13012;SDS011;22580;57.670;12.006;2023-01-24T15:03:14;3.50;;;3.10;;
13012;SDS011;22580;57.670;12.006;2023-01-24T15:05:50;3.57;;;3.27;;
13012;SDS011;22580;57.670;12.006;2023-01-24T15:08:21;3.53;;;3.20;;
13012;SDS011;22580;57.670;12.006;2023-01-24T15:10:54;4.60;;;3.97;;
13012;SDS011;22580;57.670;12.006;2023-01-24T15:13:25;4.27;;;3.57;;
13012;SDS011;22580;57.670;12.006;2023-01-24T15:15:57;3.07;;;2.77;;
13012;SDS011;22580;57.670;12.006;2023-01-24T15:18:33;3.97;;;3.00;;
13012;SDS011;22580;57.670;12.006;2023-01-24T15:21:05;3.30;;;3.00;;